createdAt,value
2019-02-16T00:03:22.363Z,5207.6
2019-02-16T00:13:21.568Z,5207.6
2019-02-16T00:23:20.782Z,5207.6
2019-02-16T00:33:19.984Z,5207.6
2019-02-16T00:43:19.192Z,5207.6
2019-02-16T00:53:18.400Z,5207.6
2019-02-16T01:03:17.607Z,5207.6
2019-02-16T01:13:16.815Z,5207.6
2019-02-16T01:23:16.023Z,5207.6
2019-02-16T01:33:15.230Z,5207.6
2019-02-16T01:43:14.438Z,5207.6
2019-02-16T01:53:13.645Z,5207.6
2019-02-16T02:03:12.854Z,5207.6
2019-02-16T02:13:12.059Z,5207.6
2019-02-16T02:23:11.266Z,5207.6
2019-02-16T02:33:10.475Z,5207.6
2019-02-16T02:43:09.781Z,5207.6
2019-02-16T02:53:08.886Z,5207.6
2019-02-16T03:03:08.093Z,5207.6
2019-02-16T03:13:07.301Z,5207.6
2019-02-16T03:23:06.561Z,5207.6
2019-02-16T03:39:51.344Z,5207.6
2019-02-16T03:49:50.548Z,5207.6
2019-02-16T03:59:49.755Z,5207.6
2019-02-16T04:09:49.011Z,5207.6
2019-02-16T04:19:48.293Z,5207.6
2019-02-16T04:29:47.372Z,5207.8
2019-02-16T04:39:46.636Z,5208
2019-02-16T04:49:45.935Z,5208.2
2019-02-16T04:59:45.276Z,5208.3
2019-02-16T05:09:44.515Z,5208.3
2019-02-16T05:19:43.806Z,5208.3
2019-02-16T05:29:43.098Z,5208.3
2019-02-16T05:39:42.311Z,5208.3
2019-02-16T05:49:41.507Z,5208.3
2019-02-16T05:59:40.715Z,5208.3
2019-02-16T06:09:39.922Z,5208.4
2019-02-16T06:19:39.125Z,5208.6
2019-02-16T06:41:10.428Z,5208.5
2019-02-16T06:51:09.633Z,5208.8
2019-02-16T07:01:08.842Z,5209
2019-02-16T07:11:08.046Z,5209.3
2019-02-16T07:21:07.257Z,5209.5
2019-02-16T07:31:06.464Z,5209.7
2019-02-16T07:41:05.727Z,5210
2019-02-16T07:51:05.021Z,5210.1
2019-02-16T08:01:04.364Z,5210.1
2019-02-16T08:11:03.606Z,5210.2
2019-02-16T08:21:02.902Z,5210.5
2019-02-16T08:31:02.200Z,5210.7
2019-02-16T08:41:01.461Z,5210.8
2019-02-16T08:51:00.620Z,5210.8
2019-02-16T09:01:54.471Z,5210.8
2019-02-16T09:11:53.681Z,5210.8
2019-02-16T09:21:52.896Z,5211
2019-02-16T09:31:52.112Z,5211.3
2019-02-16T09:41:51.328Z,5211.5
2019-02-16T09:51:50.543Z,5211.8
2019-02-16T10:01:49.810Z,5212
2019-02-16T10:11:49.107Z,5212
2019-02-16T10:21:48.455Z,5212
2019-02-16T10:31:47.694Z,5212
2019-02-16T10:41:46.991Z,5212
2019-02-16T10:51:46.289Z,5212.1
2019-02-16T11:01:45.503Z,5212.3
2019-02-16T11:11:45.500Z,5212.3
2019-02-16T11:21:43.938Z,5212.3
2019-02-16T11:31:43.159Z,5212.3
2019-02-16T11:41:42.372Z,5212.3
2019-02-16T11:51:41.640Z,5212.4
2019-02-16T12:03:03.372Z,5212.6
2019-02-16T12:13:02.595Z,5212.8
2019-02-16T12:23:01.810Z,5212.9
2019-02-16T12:33:01.030Z,5213.1
2019-02-16T12:43:00.242Z,5213.1
2019-02-16T12:52:59.456Z,5213.1
2019-02-16T13:02:58.727Z,5213.1
2019-02-16T13:12:58.028Z,5213.1
2019-02-16T13:22:57.315Z,5213.1
2019-02-16T13:32:56.620Z,5213.1
2019-02-16T13:42:55.904Z,5213.1
2019-02-16T13:55:44.822Z,5213.1
2019-02-16T14:05:44.031Z,5213.1
2019-02-16T14:15:43.273Z,5213.1
2019-02-16T14:25:44.992Z,5213.1
2019-02-16T14:35:41.662Z,5213.2
2019-02-16T14:45:40.875Z,5213.4
2019-02-16T14:55:40.143Z,5213.5
2019-02-16T15:05:39.493Z,5213.5
2019-02-16T15:15:38.773Z,5213.5
2019-02-16T15:25:38.028Z,5213.5
2019-02-16T15:35:38.789Z,5213.7
2019-02-16T15:45:37.956Z,5213.9
2019-02-16T15:55:37.219Z,5214
2019-02-16T16:05:36.388Z,5214
2019-02-16T16:15:41.693Z,5214.2
2019-02-16T16:25:34.820Z,5214.3
2019-02-16T16:35:34.039Z,5214.3
2019-02-16T16:45:33.256Z,5214.4
2019-02-16T16:55:32.471Z,5214.6
2019-02-16T17:05:32.221Z,5214.9
2019-02-16T17:15:30.907Z,5215.1
2019-02-16T17:25:30.127Z,5215.3
2019-02-16T17:35:29.351Z,5215.6
2019-02-16T17:45:28.566Z,5215.7
2019-02-16T17:55:27.830Z,5215.7
2019-02-16T18:05:27.026Z,5215.7
2019-02-16T18:15:26.270Z,5215.9
2019-02-16T18:25:25.486Z,5215.9
2019-02-16T18:45:23.947Z,5215.9
2019-02-16T18:55:23.072Z,5215.9
2019-02-16T19:05:22.292Z,5216
2019-02-16T19:15:21.498Z,5216.1
2019-02-16T19:25:20.713Z,5216.1
2019-02-16T19:35:19.931Z,5216.1
2019-02-16T19:45:19.142Z,5216.1
2019-02-16T19:55:18.357Z,5216.2
2019-02-16T20:05:17.581Z,5216.5
2019-02-16T20:15:16.792Z,5216.5
2019-02-16T20:25:16.010Z,5216.8
2019-02-16T20:35:15.230Z,5217
2019-02-16T20:45:14.449Z,5217.2
2019-02-16T20:55:13.668Z,5217.2
2019-02-16T21:14:08.172Z,5217.4
2019-02-16T21:24:07.393Z,5217.4
2019-02-16T21:34:06.602Z,5217.6
2019-02-16T21:44:05.841Z,5217.7
2019-02-16T21:54:05.030Z,5217.7
2019-02-16T22:04:04.239Z,5217.7
2019-02-16T22:14:03.520Z,5217.7
2019-02-16T22:24:02.793Z,5217.7
2019-02-16T22:34:02.082Z,5217.7
2019-02-16T22:44:02.406Z,5217.7
2019-02-16T22:54:00.655Z,5217.7
2019-02-16T23:03:59.944Z,5217.7
2019-02-16T23:13:59.216Z,5217.7
2019-02-16T23:23:58.360Z,5217.7
2019-02-16T23:33:57.568Z,5217.7
2019-02-16T23:43:56.776Z,5217.7
2019-02-16T23:53:55.983Z,5217.7
